^^
Station Historical Data
Daily Summary for January 14, 2018 Units:  English    Metric   Both
« Previous Day
Next Day »
Daily Weekly Monthly Yearly Custom
  High: Low: Average:
Temperature: TemperatureF °F 13.3 °F 23.2 °F
Dew Point: DewpointF °F 10.9 °F 15.9 °F
Humidity: Humidity% 48% 74%
Wind Speed: WindSpeedMPHmph 0.0mph 0.2mph
Wind Gust: WindSpeedGustMPHmph - -
Wind- - WNW
Pressure: PressureIn in 30.53 in -
Precipitation: 0.00 in    
Historical Graphs
 
 
Tabular Data for January 14, 2018
Time Temperature Dew Point Pressure Wind Wind Speed Wind Gust Humidity Rainfall Rate (Hourly)
TemperatureF °F DewpointF °F PressureIn in Calm     Humidity% HourlyPrecipIn in
00:05 19.9 °F 14.2 °F 30.55 in NW 2.0 mph 9.0 mph 78% 0.00 in
00:10 19.9 °F 14.5 °F 30.55 in WNW 2.9 mph 3.0 mph 79% 0.00 in
00:19 19.8 °F 14.4 °F 30.55 in WNW 2.0 mph 11.0 mph 79% 0.00 in
00:24 19.6 °F 14.2 °F 30.55 in West 0.9 mph 4.0 mph 79% 0.00 in
00:29 19.6 °F 14.4 °F 30.55 in West 2.0 mph 5.0 mph 80% 0.00 in
00:34 19.6 °F 14.2 °F 30.55 in WNW 2.9 mph 5.0 mph 79% 0.00 in
00:39 19.6 °F 14.2 °F 30.54 in NW 2.0 mph 5.0 mph 79% 0.00 in
00:44 19.4 °F 14.2 °F 30.54 in NW 0.9 mph 3.0 mph 80% 0.00 in
00:55 19.2 °F 13.8 °F 30.54 in Calm   3.0 mph 79% 0.00 in
01:00 19.2 °F 14.0 °F 30.53 in Calm     80% 0.00 in
01:05 19.0 °F 13.8 °F 30.54 in Calm   1.0 mph 80% 0.00 in
01:20 18.9 °F 13.6 °F 30.54 in NNW 2.9 mph 3.0 mph 80% 0.00 in
01:27 18.9 °F 13.6 °F 30.54 in Calm   4.0 mph 80% 0.00 in
01:32 18.7 °F 13.5 °F 30.54 in NW 0.9 mph 4.0 mph 80% 0.00 in
01:41 18.7 °F 13.8 °F 30.54 in Calm   7.0 mph 81% 0.00 in
01:49 18.5 °F 13.3 °F 30.55 in NW 4.0 mph 4.0 mph 80% 0.00 in
01:57 18.3 °F 13.5 °F 30.55 in Calm   6.0 mph 81% 0.00 in
02:02 18.3 °F 13.5 °F 30.55 in Calm   2.0 mph 81% 0.00 in
02:09 18.1 °F 13.3 °F 30.55 in Calm     81% 0.00 in
02:14 18.1 °F 13.3 °F 30.55 in Calm     81% 0.00 in
02:19 18.1 °F 13.3 °F 30.55 in Calm     81% 0.00 in
02:24 18.0 °F 13.1 °F 30.55 in Calm   1.0 mph 81% 0.00 in
02:31 18.0 °F 13.1 °F 30.55 in Calm   2.0 mph 81% 0.00 in
02:36 18.0 °F 13.1 °F 30.55 in Calm     81% 0.00 in
02:46 17.8 °F 12.9 °F 30.55 in Calm     81% 0.00 in
02:51 17.8 °F 13.3 °F 30.55 in Calm     82% 0.00 in
02:56 17.6 °F 12.7 °F 30.55 in Calm     81% 0.00 in
03:01 17.6 °F 13.1 °F 30.55 in Calm     82% 0.00 in
03:07 17.4 °F 12.9 °F 30.55 in Calm     82% 0.00 in
03:13 17.4 °F 12.9 °F 30.55 in Calm     82% 0.00 in
03:18 17.2 °F 12.7 °F 30.55 in Calm     82% 0.00 in
03:29 17.1 °F 12.7 °F 30.55 in Calm     83% 0.00 in
03:38 16.9 °F 12.6 °F 30.55 in Calm     83% 0.00 in
03:44 16.9 °F 12.9 °F 30.55 in Calm     84% 0.00 in
03:51 16.7 °F 12.7 °F 30.55 in Calm     84% 0.00 in
03:56 16.5 °F 12.6 °F 30.55 in Calm     84% 0.00 in
04:01 16.3 °F 12.6 °F 30.55 in Calm     85% 0.00 in
04:10 16.2 °F 12.4 °F 30.55 in Calm     85% 0.00 in
04:17 16.0 °F 12.6 °F 30.55 in Calm     86% 0.00 in
04:27 15.6 °F 12.2 °F 30.55 in Calm     86% 0.00 in
04:32 15.6 °F 12.2 °F 30.55 in Calm     86% 0.00 in
04:37 15.4 °F 12.2 °F 30.55 in Calm     87% 0.00 in
04:42 15.4 °F 12.2 °F 30.55 in Calm     87% 0.00 in
04:48 15.3 °F 12.0 °F 30.55 in Calm     87% 0.00 in
04:53 15.3 °F 12.0 °F 30.55 in Calm     87% 0.00 in
04:59 15.3 °F 12.0 °F 30.55 in Calm     87% 0.00 in
05:04 15.1 °F 11.8 °F 30.55 in Calm     87% 0.00 in
05:10 15.1 °F 12.2 °F 30.56 in Calm     88% 0.00 in
05:18 14.7 °F 11.8 °F 30.56 in Calm     88% 0.00 in
05:27 14.7 °F 11.8 °F 30.57 in Calm     88% 0.00 in
05:32 14.5 °F 11.8 °F 30.57 in Calm     89% 0.00 in
05:41 14.5 °F 11.8 °F 30.57 in Calm     89% 0.00 in
05:46 14.5 °F 11.8 °F 30.57 in Calm     89% 0.00 in
05:51 14.5 °F 11.8 °F 30.57 in Calm     89% 0.00 in
05:56 14.5 °F 11.8 °F 30.57 in Calm     89% 0.00 in
06:02 14.4 °F 11.7 °F 30.57 in Calm     89% 0.00 in
06:11 14.4 °F 11.7 °F 30.58 in Calm     89% 0.00 in
06:16 14.4 °F 11.7 °F 30.58 in Calm     89% 0.00 in
06:21 14.4 °F 11.7 °F 30.58 in Calm     89% 0.00 in
06:26 14.4 °F 11.7 °F 30.58 in Calm     89% 0.00 in
06:35 14.2 °F 11.5 °F 30.58 in Calm     89% 0.00 in
06:40 14.2 °F 11.5 °F 30.58 in Calm     89% 0.00 in
06:45 14.0 °F 11.7 °F 30.59 in Calm     90% 0.00 in
06:50 13.8 °F 11.5 °F 30.59 in Calm     90% 0.00 in
06:55 13.8 °F 11.1 °F 30.59 in Calm     89% 0.00 in
07:00 13.6 °F 10.9 °F 30.59 in Calm     89% 0.00 in
07:09 13.6 °F 11.3 °F 30.60 in Calm     90% 0.00 in
07:16 13.5 °F 11.1 °F 30.60 in Calm     90% 0.00 in
07:21 13.5 °F 11.1 °F 30.60 in Calm     90% 0.00 in
07:33 13.5 °F 11.1 °F 30.60 in Calm     90% 0.00 in
07:41 13.3 °F 10.9 °F 30.60 in Calm     90% 0.00 in
07:46 13.5 °F 11.1 °F 30.60 in Calm     90% 0.00 in
07:53 13.3 °F 10.9 °F 30.60 in Calm     90% 0.00 in
07:58 13.3 °F 10.9 °F 30.60 in Calm     90% 0.00 in
08:03 13.3 °F 11.1 °F 30.61 in Calm     91% 0.00 in
08:13 13.5 °F 11.3 °F 30.62 in Calm     91% 0.00 in
08:18 13.5 °F 11.3 °F 30.62 in Calm     91% 0.00 in
08:23 13.6 °F 11.5 °F 30.62 in Calm     91% 0.00 in
08:29 13.8 °F 11.7 °F 30.63 in Calm     91% 0.00 in
08:35 14.2 °F 14.2 °F 30.63 in Calm     100% 0.00 in
08:40 14.4 °F 12.2 °F 30.63 in Calm     91% 0.00 in
08:50 14.7 °F 12.6 °F 30.63 in Calm     91% 0.00 in
09:00 15.4 °F 13.3 °F 30.63 in Calm     91% 0.00 in
09:05 15.8 °F 13.6 °F 30.63 in Calm     91% 0.00 in
09:14 16.3 °F 14.0 °F 30.63 in Calm     90% 0.00 in
09:19 17.1 °F 14.7 °F 30.63 in Calm     90% 0.00 in
09:25 17.8 °F 15.3 °F 30.63 in Calm     90% 0.00 in
09:37 19.2 °F 16.0 °F 30.64 in Calm     87% 0.00 in
09:42 19.9 °F 16.7 °F 30.64 in NW 0.9 mph 1.0 mph 87% 0.00 in
09:58 21.0 °F 16.7 °F 30.65 in Calm     83% 0.00 in
10:07 21.9 °F 17.1 °F 30.66 in Calm     81% 0.00 in
10:13 22.3 °F 17.1 °F 30.66 in Calm     80% 0.00 in
10:18 22.6 °F 17.1 °F 30.66 in Calm     79% 0.00 in
10:24 23.2 °F 17.4 °F 30.66 in Calm   2.0 mph 78% 0.00 in
10:31 23.5 °F 17.8 °F 30.66 in Calm     78% 0.00 in
10:37 23.7 °F 17.6 °F 30.66 in Calm     77% 0.00 in
10:47 24.3 °F 17.4 °F 30.65 in Calm     75% 0.00 in
10:52 24.6 °F 17.6 °F 30.65 in Calm   2.0 mph 74% 0.00 in
10:57 25.0 °F 16.9 °F 30.65 in Calm     71% 0.00 in
11:04 25.2 °F 16.7 °F 30.64 in Calm     70% 0.00 in
11:10 25.3 °F 16.0 °F 30.64 in Calm   1.0 mph 67% 0.00 in
11:15 25.5 °F 16.7 °F 30.64 in Calm   3.0 mph 69% 0.00 in
11:23 26.1 °F 17.2 °F 30.64 in WNW 2.0 mph 3.0 mph 69% 0.00 in
11:28 26.2 °F 16.7 °F 30.63 in Calm     67% 0.00 in
11:38 27.0 °F 16.3 °F 30.63 in NNW 0.9 mph 1.0 mph 64% 0.00 in
11:45 27.9 °F 17.6 °F 30.63 in Calm     65% 0.00 in
11:50 28.4 °F 17.1 °F 30.63 in Calm     62% 0.00 in
11:55 28.6 °F 16.5 °F 30.63 in NW 0.9 mph 2.0 mph 60% 0.00 in
12:01 28.9 °F 16.3 °F 30.62 in Calm     59% 0.00 in
12:06 29.5 °F 17.2 °F 30.62 in NNW 0.9 mph 2.0 mph 60% 0.00 in
12:12 29.8 °F 17.2 °F 30.61 in Calm   2.0 mph 59% 0.00 in
12:17 30.2 °F 17.6 °F 30.60 in Calm     59% 0.00 in
12:23 30.6 °F 18.0 °F 30.60 in Calm     59% 0.00 in
12:28 30.9 °F 18.3 °F 30.60 in Calm     59% 0.00 in
12:33 31.3 °F 18.7 °F 30.60 in Calm     59% 0.00 in
12:43 31.8 °F 18.0 °F 30.60 in NNW 0.9 mph 2.0 mph 56% 0.00 in
12:50 32.0 °F 17.2 °F 30.59 in Calm   1.0 mph 54% 0.00 in
12:55 32.2 °F 16.5 °F 30.59 in Calm   4.0 mph 52% 0.00 in
13:00 32.5 °F 17.8 °F 30.59 in Calm     54% 0.00 in
13:05 32.7 °F 17.4 °F 30.58 in Calm   1.0 mph 53% 0.00 in
13:10 33.1 °F 17.4 °F 30.58 in Calm     52% 0.00 in
13:15 33.1 °F 16.5 °F 30.58 in WNW 2.0 mph 3.0 mph 50% 0.00 in
13:24 33.3 °F 16.7 °F 30.57 in Calm     50% 0.00 in
13:29 33.3 °F 16.2 °F 30.57 in Calm     49% 0.00 in
13:35 33.4 °F 17.2 °F 30.57 in Calm     51% 0.00 in
13:40 34.0 °F 16.3 °F 30.57 in Calm     48% 0.00 in
13:46 34.0 °F 17.8 °F 30.56 in Calm     51% 0.00 in
13:51 34.2 °F 19.8 °F 30.56 in Calm   1.0 mph 55% 0.00 in
13:57 34.2 °F 20.5 °F 30.56 in Calm     57% 0.00 in
14:02 34.2 °F 20.8 °F 30.56 in Calm   1.0 mph 58% 0.00 in
14:09 34.2 °F 20.5 °F 30.56 in Calm   4.0 mph 57% 0.00 in
14:15 34.2 °F 20.5 °F 30.56 in Calm   1.0 mph 57% 0.00 in
14:20 34.3 °F 21.0 °F 30.56 in ESE 2.0 mph 2.0 mph 58% 0.00 in
14:30 34.3 °F 20.7 °F 30.55 in Calm     57% 0.00 in
14:35 34.3 °F 20.3 °F 30.55 in Calm     56% 0.00 in
14:43 34.2 °F 19.2 °F 30.55 in Calm   1.0 mph 54% 0.00 in
14:58 34.3 °F 19.4 °F 30.56 in Calm   3.0 mph 54% 0.00 in
15:12 34.0 °F 19.0 °F 30.56 in Calm     54% 0.00 in
15:19 34.0 °F 19.0 °F 30.56 in Calm   1.0 mph 54% 0.00 in
15:25 34.0 °F 19.0 °F 30.56 in Calm   3.0 mph 54% 0.00 in
15:30 34.0 °F 18.1 °F 30.57 in Calm   2.0 mph 52% 0.00 in
15:35 33.8 °F 18.0 °F 30.57 in Calm     52% 0.00 in
15:40 33.6 °F 18.3 °F 30.57 in Calm   1.0 mph 53% 0.00 in
15:45 33.4 °F 18.1 °F 30.57 in Calm     53% 0.00 in
15:50 33.4 °F 18.1 °F 30.57 in Calm     53% 0.00 in
15:57 33.3 °F 18.9 °F 30.57 in Calm   1.0 mph 55% 0.00 in
16:02 33.1 °F 18.7 °F 30.57 in Calm     55% 0.00 in
16:10 32.7 °F 18.0 °F 30.57 in Calm   -999.0 mph 54% 0.00 in
16:15 32.5 °F 18.1 °F 30.57 in North 0.9 mph 1.0 mph 55% 0.00 in
16:21 32.5 °F 17.8 °F 30.57 in Calm   2.0 mph 54% 0.00 in
16:28 32.4 °F 17.1 °F 30.57 in Calm   1.0 mph 53% 0.00 in
16:35 32.4 °F 17.6 °F 30.57 in Calm   1.0 mph 54% 0.00 in
16:41 32.4 °F 16.7 °F 30.57 in Calm     52% 0.00 in
16:46 32.4 °F 17.1 °F 30.57 in Calm   1.0 mph 53% 0.00 in
16:51 32.2 °F 17.8 °F 30.57 in Calm     55% 0.00 in
16:57 32.2 °F 18.3 °F 30.57 in Calm     56% 0.00 in
17:02 31.8 °F 17.4 °F 30.57 in Calm     55% 0.00 in
17:11 31.6 °F 18.1 °F 30.56 in Calm     57% 0.00 in
17:17 31.5 °F 18.3 °F 30.56 in Calm     58% 0.00 in
17:22 31.5 °F 19.2 °F 30.56 in Calm     60% 0.00 in
17:30 31.1 °F 18.1 °F 30.56 in Calm     58% 0.00 in
17:37 30.7 °F 18.5 °F 30.55 in Calm     60% 0.00 in
17:43 30.6 °F 18.3 °F 30.55 in Calm     60% 0.00 in
17:50 30.2 °F 18.3 °F 30.55 in Calm     61% 0.00 in
18:00 29.8 °F 18.0 °F 30.55 in Calm     61% 0.00 in
18:01 29.8 °F 18.0 °F 30.55 in Calm     61% 0.00 in
18:07 29.5 °F 18.1 °F 30.56 in Calm     62% 0.00 in
18:12 29.5 °F 18.5 °F 30.56 in Calm     63% 0.00 in
18:24 28.9 °F 18.0 °F 30.57 in Calm     63% 0.00 in
18:33 28.4 °F 18.5 °F 30.57 in Calm     66% 0.00 in
18:43 28.0 °F 19.6 °F 30.57 in Calm     70% 0.00 in
18:49 27.9 °F 19.9 °F 30.57 in Calm     72% 0.00 in
18:54 27.9 °F 19.9 °F 30.57 in Calm     72% 0.00 in
18:59 27.7 °F 19.6 °F 30.57 in Calm     71% 0.00 in
19:05 27.3 °F 19.8 °F 30.57 in Calm     73% 0.00 in
19:10 27.3 °F 19.6 °F 30.58 in Calm     72% 0.00 in
19:15 27.1 °F 19.6 °F 30.58 in Calm     73% 0.00 in
19:23 27.0 °F 19.2 °F 30.57 in Calm     72% 0.00 in
19:28 26.8 °F 19.2 °F 30.57 in Calm     73% 0.00 in
19:38 26.6 °F 19.0 °F 30.57 in Calm     73% 0.00 in
19:46 26.2 °F 19.0 °F 30.57 in Calm     74% 0.00 in
19:51 26.2 °F 19.0 °F 30.58 in Calm     74% 0.00 in
19:56 26.1 °F 19.2 °F 30.57 in Calm     75% 0.00 in
20:08 25.7 °F 18.9 °F 30.57 in Calm     75% 0.00 in
20:13 25.5 °F 19.0 °F 30.57 in Calm     76% 0.00 in
20:18 25.3 °F 18.9 °F 30.57 in Calm     76% 0.00 in
20:23 25.2 °F 19.0 °F 30.57 in Calm     77% 0.00 in
20:28 25.2 °F 19.0 °F 30.57 in Calm     77% 0.00 in
20:33 25.0 °F 19.0 °F 30.57 in Calm     78% 0.00 in
20:40 24.6 °F 18.7 °F 30.58 in Calm     78% 0.00 in
20:48 24.4 °F 18.9 °F 30.58 in Calm     79% 0.00 in
20:55 24.3 °F 18.7 °F 30.58 in Calm     79% 0.00 in
21:00 24.3 °F 19.0 °F 30.58 in Calm     80% 0.00 in
21:08 23.9 °F 18.7 °F 30.58 in Calm     80% 0.00 in
21:15 23.5 °F 18.3 °F 30.58 in Calm     80% 0.00 in
21:28 23.4 °F 18.3 °F 30.58 in Calm     81% 0.00 in
21:33 23.2 °F 18.5 °F 30.58 in Calm     82% 0.00 in
21:39 23.2 °F 18.5 °F 30.58 in Calm     82% 0.00 in
21:49 22.8 °F 18.5 °F 30.57 in Calm     83% 0.00 in
21:59 22.6 °F 18.3 °F 30.58 in Calm     83% 0.00 in
22:08 22.5 °F 18.1 °F 30.58 in Calm     83% 0.00 in
22:13 22.5 °F 18.3 °F 30.57 in Calm     84% 0.00 in
22:14 22.5 °F 18.3 °F 30.58 in Calm     84% 0.00 in
22:19 22.3 °F 18.1 °F 30.58 in Calm     84% 0.00 in
22:26 22.1 °F 18.0 °F 30.58 in Calm     84% 0.00 in
22:31 22.1 °F 18.3 °F 30.58 in Calm     85% 0.00 in
22:38 21.9 °F 18.1 °F 30.59 in Calm     85% 0.00 in
22:48 21.7 °F 18.0 °F 30.59 in Calm     85% 0.00 in
22:56 21.6 °F 18.0 °F 30.58 in Calm     86% 0.00 in
23:09 21.2 °F 18.0 °F 30.58 in Calm     87% 0.00 in
23:14 21.0 °F 17.8 °F 30.57 in Calm     87% 0.00 in
23:20 21.0 °F 17.8 °F 30.57 in Calm     87% 0.00 in
23:25 21.0 °F 17.8 °F 30.57 in Calm     87% 0.00 in
23:35 20.8 °F 17.8 °F 30.56 in Calm     88% 0.00 in
23:40 20.8 °F 17.8 °F 30.56 in Calm     88% 0.00 in
23:47 20.7 °F 17.6 °F 30.56 in Calm     88% 0.00 in
23:52 20.7 °F 17.6 °F 30.56 in Calm     88% 0.00 in
23:59 20.5 °F 17.4 °F 30.55 in Calm     88% 0.00 in
Ellijay Weather
Compliments of Weather Underground - 2.25 mb